Time;durP1;ratioP1;P1;durP2;ratioP2;P2;SDS_P1;SDS_P2;PMS_P1;PMS_P2;Temp;Humidity;BMP_temperature;BMP_pressure;BME280_temperature;BME280_humidity;BME280_pressure;Samples;Min_cycle;Max_cycle;Signal;HPM_P1;HPM_P2
2021/08/04 00:00:29;;;;;;;;;;;;;;;20.08;86.89;98706.84;5012287;28;19968;-61
2021/08/04 00:02:54;;;;;;;;;;;;;;;20.08;84.80;98705.06;5012834;28;19917;-62
2021/08/04 00:05:19;;;;;;;;;;;;;;;19.94;82.30;98708.72;5012178;28;19918;-62
2021/08/04 00:07:45;;;;;;;;;;;;;;;19.70;78.47;98710.53;5012214;28;19921;-62
2021/08/04 00:10:10;;;;;;;;;;;;;;;19.67;80.43;98705.53;5012394;28;19917;-62
2021/08/04 00:12:36;;;;;;;;;;;;;;;19.56;84.50;98711.53;5012292;28;19929;-63
2021/08/04 00:15:02;;;;;;;;;;;;;;;19.74;80.37;98710.19;4994362;28;20008;-62
2021/08/04 00:17:27;;;;;;;;;;;;;;;19.93;84.92;98712.25;5011800;28;20272;-62
2021/08/04 00:19:52;;;;;;;;;;;;;;;19.88;84.49;98709.16;5012056;28;20031;-63
2021/08/04 00:22:18;;;;;;;;;;;;;;;19.90;88.87;98709.06;5011621;28;20338;-63
2021/08/04 00:24:43;;;;;;;;;;;;;;;19.79;90.92;98708.06;5011295;28;19922;-63
2021/08/04 00:27:08;;;;;;;;;;;;;;;19.44;76.57;98711.47;5011163;28;19917;-63
2021/08/04 00:29:33;;;;;;;;;;;;;;;19.08;86.79;98711.53;5011558;28;19917;-63
2021/08/04 00:31:59;;;;;;;;;;;;;;;18.71;90.15;98711.50;5011355;28;19918;-62
2021/08/04 00:34:24;;;;;;;;;;;;;;;18.75;90.34;98713.81;4977592;28;19921;-62
2021/08/04 00:36:50;;;;;;;;;;;;;;;18.91;89.97;98713.59;4993651;28;19924;-62
2021/08/04 00:39:15;;;;;;;;;;;;;;;19.15;80.53;98710.97;5011299;28;19925;-63
2021/08/04 00:41:41;;;;;;;;;;;;;;;19.17;84.73;98709.09;5011325;28;19924;-63
2021/08/04 00:44:06;;;;;;;;;;;;;;;18.90;88.08;98716.28;5011595;28;19929;-63
2021/08/04 00:46:32;;;;;;;;;;;;;;;19.17;88.17;98710.88;5012073;28;19917;-62
2021/08/04 00:48:57;;;;;;;;;;;;;;;19.32;83.59;98708.94;5011830;28;20403;-63
2021/08/04 00:51:22;;;;;;;;;;;;;;;19.31;81.40;98707.28;4994621;28;19921;-62
2021/08/04 00:53:48;;;;;;;;;;;;;;;19.12;88.12;98715.59;5011336;28;19921;-62
2021/08/04 00:56:13;;;;;;;;;;;;;;;19.09;88.01;98714.06;5011216;28;19920;-63
2021/08/04 00:58:40;;;;;;;;;;;;;;;18.89;90.69;98715.47;5011038;28;19959;-63
2021/08/04 01:01:09;;;;;;;;;;;;;;;18.65;94.23;98712.75;4993924;28;19914;-63
2021/08/04 01:03:36;;;;;;;;;;;;;;;18.53;96.21;98711.03;5011077;28;19913;-63
2021/08/04 01:06:03;;;;;;;;;;;;;;;18.71;97.16;98712.34;4994984;28;19917;-63
2021/08/04 01:08:29;;;;;;;;;;;;;;;19.17;92.20;98709.09;4994598;28;19921;-63
2021/08/04 01:10:55;;;;;;;;;;;;;;;19.59;93.08;98709.53;4993117;28;19936;-63
2021/08/04 01:13:24;;;;;;;;;;;;;;;19.62;89.18;98718.94;4993334;28;19921;-63
2021/08/04 01:16:07;;;;;;;;;;;;;;;19.58;92.84;98713.09;5010556;28;19917;-63
2021/08/04 01:18:36;;;;;;;;;;;;;;;19.67;94.40;98718.59;4993218;28;20292;-62
2021/08/04 01:21:01;;;;;;;;;;;;;;;19.72;94.00;98716.50;5009392;28;20550;-62
2021/08/04 01:23:31;;;;;;;;;;;;;;;19.77;93.16;98711.75;4990205;28;19914;-63
2021/08/04 01:25:59;;;;;;;;;;;;;;;19.75;89.30;98713.63;4983329;28;19928;-63
2021/08/04 01:28:40;;;;;;;;;;;;;;;19.70;88.76;98706.13;4992100;28;20270;-62
2021/08/04 01:31:07;;;;;;;;;;;;;;;19.71;84.21;98707.00;4995211;28;19914;-63
2021/08/04 01:33:34;;;;;;;;;;;;;;;19.40;84.81;98707.44;4993950;28;19923;-62
2021/08/04 01:35:59;;;;;;;;;;;;;;;18.86;96.51;98704.41;5011657;28;19924;-63
2021/08/04 01:38:25;;;;;;;;;;;;;;;19.08;90.37;98704.53;5010452;28;20298;-63
2021/08/04 01:40:50;;;;;;;;;;;;;;;19.63;92.59;98705.72;4992920;28;19963;-63
2021/08/04 01:43:16;;;;;;;;;;;;;;;19.59;81.41;98704.31;4992553;28;20372;-62
2021/08/04 01:45:42;;;;;;;;;;;;;;;19.68;78.84;98702.78;4993488;28;19913;-62
2021/08/04 01:48:07;;;;;;;;;;;;;;;19.70;81.59;98707.94;5009297;28;19925;-62
2021/08/04 01:50:33;;;;;;;;;;;;;;;19.72;90.39;98708.66;5009645;28;19966;-62
2021/08/04 01:52:58;;;;;;;;;;;;;;;19.06;88.24;98706.41;5009838;28;20299;-62
2021/08/04 01:55:24;;;;;;;;;;;;;;;18.09;99.96;98707.09;4993882;28;19996;-62
2021/08/04 01:57:49;;;;;;;;;;;;;;;18.22;98.27;98705.28;4994762;28;20383;-62
2021/08/04 02:00:14;;;;;;;;;;;;;;;19.03;94.29;98698.81;5010866;28;19914;-62
2021/08/04 02:02:40;;;;;;;;;;;;;;;19.41;100.00;98700.44;5011887;28;19913;-62
2021/08/04 02:05:05;;;;;;;;;;;;;;;19.41;99.10;98703.88;5011945;28;20422;-62
2021/08/04 02:07:37;;;;;;;;;;;;;;;19.50;94.00;98704.13;4994644;28;19918;-62
2021/08/04 02:10:03;;;;;;;;;;;;;;;19.41;94.59;98696.06;5010222;28;19918;-62
2021/08/04 02:12:28;;;;;;;;;;;;;;;19.12;100.00;98702.56;4992137;28;19917;-62
2021/08/04 02:14:55;;;;;;;;;;;;;;;18.99;100.00;98692.97;4992501;28;19914;-62
2021/08/04 02:17:20;;;;;;;;;;;;;;;19.33;97.50;98687.94;4992298;28;19977;-63
2021/08/04 02:19:46;;;;;;;;;;;;;;;17.98;100.00;98700.81;4992178;28;20001;-63
2021/08/04 02:22:19;;;;;;;;;;;;;;;18.74;100.00;98696.47;4991846;28;20219;-62
2021/08/04 02:24:47;;;;;;;;;;;;;;;19.30;100.00;98697.78;5009989;28;19914;-63
2021/08/04 02:27:12;;;;;;;;;;;;;;;19.35;97.26;98690.44;5009877;28;19917;-63
2021/08/04 02:29:39;;;;;;;;;;;;;;;19.34;100.00;98694.84;4993250;28;19936;-63
2021/08/04 02:32:05;;;;;;;;;;;;;;;19.48;100.00;98692.97;5009836;28;19933;-63
2021/08/04 02:34:30;;;;;;;;;;;;;;;19.46;100.00;98697.50;5009966;28;20278;-63
2021/08/04 02:36:55;;;;;;;;;;;;;;;19.39;96.68;98692.72;4992669;28;19918;-62
2021/08/04 02:39:21;;;;;;;;;;;;;;;19.03;100.00;98696.22;5009739;28;19913;-62
2021/08/04 02:41:46;;;;;;;;;;;;;;;18.62;100.00;98694.72;4991917;28;20366;-63
2021/08/04 02:44:15;;;;;;;;;;;;;;;18.90;100.00;98690.19;4991704;28;19917;-63
2021/08/04 02:46:40;;;;;;;;;;;;;;;19.19;100.00;98695.94;4992849;28;19924;-63
2021/08/04 02:49:06;;;;;;;;;;;;;;;19.00;100.00;98692.06;4990964;28;19929;-62
2021/08/04 02:51:31;;;;;;;;;;;;;;;18.46;100.00;98696.75;4992878;28;19917;-62
2021/08/04 02:53:57;;;;;;;;;;;;;;;18.45;100.00;98700.28;5009603;28;19917;-62
2021/08/04 02:56:23;;;;;;;;;;;;;;;18.27;100.00;98698.00;5009098;28;19925;-62
2021/08/04 02:58:49;;;;;;;;;;;;;;;18.63;100.00;98699.00;4991313;28;20008;-63
2021/08/04 03:01:14;;;;;;;;;;;;;;;18.39;100.00;98702.38;5010620;28;20391;-63
2021/08/04 03:03:39;;;;;;;;;;;;;;;17.86;100.00;98706.84;5009312;28;19918;-62
2021/08/04 03:06:05;;;;;;;;;;;;;;;18.41;100.00;98701.44;5008923;28;19971;-63
2021/08/04 03:08:30;;;;;;;;;;;;;;;18.88;100.00;98702.53;5009232;28;19921;-63
2021/08/04 03:10:55;;;;;;;;;;;;;;;18.92;100.00;98698.75;5009701;28;19927;-63
2021/08/04 03:13:21;;;;;;;;;;;;;;;19.16;100.00;98701.41;5009121;28;19932;-63
2021/08/04 03:15:46;;;;;;;;;;;;;;;19.25;100.00;98699.88;5009580;28;20018;-63
2021/08/04 03:18:11;;;;;;;;;;;;;;;19.21;100.00;98697.50;5009957;28;19928;-63
2021/08/04 03:20:37;;;;;;;;;;;;;;;19.25;100.00;98699.88;5009669;28;19929;-63
2021/08/04 03:23:02;;;;;;;;;;;;;;;19.31;93.52;98694.22;5009255;28;19924;-63
2021/08/04 03:25:27;;;;;;;;;;;;;;;19.32;100.00;98695.91;5009553;28;20008;-62
2021/08/04 03:27:53;;;;;;;;;;;;;;;19.29;100.00;98696.09;5008729;28;19960;-63
2021/08/04 03:30:18;;;;;;;;;;;;;;;19.33;99.14;98697.56;5009429;28;19913;-62
2021/08/04 03:32:44;;;;;;;;;;;;;;;18.91;90.26;98695.31;5011722;28;19913;-63
2021/08/04 03:35:10;;;;;;;;;;;;;;;18.20;100.00;98696.78;5012889;28;20004;-62
2021/08/04 03:37:35;;;;;;;;;;;;;;;18.22;97.74;98707.91;5003658;28;19953;-63
2021/08/04 03:40:00;;;;;;;;;;;;;;;18.54;100.00;98702.25;5012894;28;20000;-62
2021/08/04 03:42:26;;;;;;;;;;;;;;;18.66;94.13;98697.97;4996550;28;20485;-63
2021/08/04 03:44:51;;;;;;;;;;;;;;;18.97;91.12;98697.47;4995460;28;19913;-63
2021/08/04 03:47:17;;;;;;;;;;;;;;;19.22;97.03;98701.75;5013180;28;19920;-62
2021/08/04 03:49:42;;;;;;;;;;;;;;;19.27;99.45;98698.00;5012903;28;19914;-63
2021/08/04 03:52:07;;;;;;;;;;;;;;;19.14;97.83;98704.09;5012350;28;19945;-63
2021/08/04 03:54:33;;;;;;;;;;;;;;;19.18;92.56;98697.72;5012897;28;19964;-63
2021/08/04 03:56:58;;;;;;;;;;;;;;;19.08;98.47;98691.50;5015059;28;19914;-62
2021/08/04 03:59:23;;;;;;;;;;;;;;;18.93;89.09;98695.19;4994739;28;20564;-63
2021/08/04 04:01:49;;;;;;;;;;;;;;;18.85;97.42;98707.97;5013189;28;19917;-63
2021/08/04 04:04:14;;;;;;;;;;;;;;;18.89;100.00;98698.97;4994248;28;19917;-63
2021/08/04 04:06:40;;;;;;;;;;;;;;;18.88;100.00;98708.56;5013940;28;19996;-63
2021/08/04 04:09:05;;;;;;;;;;;;;;;18.89;95.82;98699.81;5012761;28;19921;-62
2021/08/04 04:11:30;;;;;;;;;;;;;;;18.66;96.63;98698.78;4994683;28;19924;-63
2021/08/04 04:13:56;;;;;;;;;;;;;;;18.33;91.83;98709.78;5011254;28;20016;-63
2021/08/04 04:16:22;;;;;;;;;;;;;;;18.70;90.77;98718.50;4995632;28;19957;-63
2021/08/04 04:18:48;;;;;;;;;;;;;;;18.75;100.00;98719.03;4996434;28;19967;-63
2021/08/04 04:21:13;;;;;;;;;;;;;;;18.74;93.87;98725.16;5011286;28;20945;-58
2021/08/04 04:23:39;;;;;;;;;;;;;;;18.70;98.73;98718.50;5007209;28;19922;-62
2021/08/04 04:26:04;;;;;;;;;;;;;;;18.75;100.00;98724.22;5009432;28;19949;-63
2021/08/04 04:28:29;;;;;;;;;;;;;;;18.79;100.00;98723.13;5012624;28;19925;-62
2021/08/04 04:30:55;;;;;;;;;;;;;;;18.83;100.00;98730.72;5012119;28;19920;-62
2021/08/04 04:33:20;;;;;;;;;;;;;;;18.84;99.25;98732.38;5012194;28;19913;-63
2021/08/04 04:35:45;;;;;;;;;;;;;;;18.74;95.91;98729.56;4995881;28;19917;-62
2021/08/04 04:38:11;;;;;;;;;;;;;;;18.95;94.28;98737.66;4995893;28;19914;-62
2021/08/04 04:40:36;;;;;;;;;;;;;;;18.84;96.32;98734.97;5013035;28;19952;-62
2021/08/04 04:43:01;;;;;;;;;;;;;;;18.98;100.00;98740.09;5011678;28;19920;-62
2021/08/04 04:45:27;;;;;;;;;;;;;;;19.08;100.00;98725.41;5010615;28;19945;-63
2021/08/04 04:47:52;;;;;;;;;;;;;;;19.06;100.00;98726.47;5011922;28;19924;-63
2021/08/04 04:50:17;;;;;;;;;;;;;;;19.14;96.56;98725.00;5011585;28;19917;-63
2021/08/04 04:52:42;;;;;;;;;;;;;;;18.86;88.90;98722.66;5011803;28;20272;-63
2021/08/04 04:55:08;;;;;;;;;;;;;;;18.64;94.12;98721.53;5011691;28;19959;-63
2021/08/04 04:57:33;;;;;;;;;;;;;;;19.03;90.78;98722.31;5011518;28;19918;-63
2021/08/04 04:59:59;;;;;;;;;;;;;;;19.13;92.77;98723.31;5011634;28;19959;-63
2021/08/04 05:02:24;;;;;;;;;;;;;;;19.26;91.37;98731.09;5011829;28;19913;-63
2021/08/04 05:04:49;;;;;;;;;;;;;;;19.34;85.75;98734.00;4993973;28;19996;-63
2021/08/04 05:07:15;;;;;;;;;;;;;;;19.36;98.34;98734.72;5011372;28;19917;-62
2021/08/04 05:09:40;;;;;;;;;;;;;;;19.38;94.46;98737.22;5015370;28;19914;-62
2021/08/04 05:12:05;;;;;;;;;;;;;;;19.38;92.60;98737.22;5011238;28;19920;-63
2021/08/04 05:14:31;;;;;;;;;;;;;;;19.29;87.62;98737.88;5013155;28;19957;-63
2021/08/04 05:16:56;;;;;;;;;;;;;;;19.19;100.00;98741.16;5011729;28;19918;-62
2021/08/04 05:19:21;;;;;;;;;;;;;;;19.28;90.30;98744.06;5010450;28;19917;-63
2021/08/04 05:21:47;;;;;;;;;;;;;;;18.84;100.00;98748.03;5011685;28;19917;-63
2021/08/04 05:24:12;;;;;;;;;;;;;;;18.79;100.00;98757.03;5010779;28;20016;-63
2021/08/04 05:26:37;;;;;;;;;;;;;;;18.61;100.00;98755.66;5013173;28;20599;-62
2021/08/04 05:29:03;;;;;;;;;;;;;;;17.82;100.00;98765.28;5010880;28;19924;-62
2021/08/04 05:31:28;;;;;;;;;;;;;;;18.33;100.00;98760.13;5010286;28;19914;-63
2021/08/04 05:33:53;;;;;;;;;;;;;;;18.31;100.00;98756.78;5011985;28;19913;-62
2021/08/04 05:36:19;;;;;;;;;;;;;;;18.51;100.00;98763.28;4994346;28;19913;-62
2021/08/04 05:38:44;;;;;;;;;;;;;;;18.16;100.00;98765.66;5010048;28;19925;-63
2021/08/04 05:41:09;;;;;;;;;;;;;;;18.22;100.00;98762.63;5010737;28;19916;-62
2021/08/04 05:43:35;;;;;;;;;;;;;;;19.04;100.00;98764.91;5010525;28;19918;-63
2021/08/04 05:46:00;;;;;;;;;;;;;;;18.77;100.00;98758.06;5009401;28;19914;-62
2021/08/04 05:48:25;;;;;;;;;;;;;;;19.16;100.00;98754.44;5010622;28;19923;-63
2021/08/04 05:50:50;;;;;;;;;;;;;;;18.32;100.00;98755.06;5010163;28;19913;-63
2021/08/04 05:53:16;;;;;;;;;;;;;;;18.54;100.00;98763.09;5010662;28;19971;-63
2021/08/04 05:55:41;;;;;;;;;;;;;;;19.02;100.00;98757.16;4991539;28;20031;-62
2021/08/04 05:58:07;;;;;;;;;;;;;;;19.22;98.11;98753.16;5009686;28;19917;-62
2021/08/04 06:00:32;;;;;;;;;;;;;;;18.98;100.00;98758.34;5008260;28;20572;-62
2021/08/04 06:02:58;;;;;;;;;;;;;;;18.74;100.00;98759.06;5007639;28;19960;-62
2021/08/04 06:05:23;;;;;;;;;;;;;;;19.00;100.00;98774.72;5007777;28;19921;-62
2021/08/04 06:07:48;;;;;;;;;;;;;;;18.72;100.00;98770.56;5010033;28;20055;-62
2021/08/04 06:10:14;;;;;;;;;;;;;;;17.58;100.00;98778.09;5009647;28;19924;-62
2021/08/04 06:12:39;;;;;;;;;;;;;;;17.53;100.00;98783.59;5010027;28;19971;-62
2021/08/04 06:15:05;;;;;;;;;;;;;;;17.89;100.00;98782.19;5008102;28;19917;-62
2021/08/04 06:17:30;;;;;;;;;;;;;;;18.32;100.00;98778.50;5009706;28;19968;-62
2021/08/04 06:19:55;;;;;;;;;;;;;;;18.86;100.00;98777.47;5011523;28;19924;-63
2021/08/04 06:22:20;;;;;;;;;;;;;;;17.63;100.00;98785.59;5009071;28;20572;-62
2021/08/04 06:24:46;;;;;;;;;;;;;;;17.56;100.00;98786.03;5009425;28;20445;-62
2021/08/04 06:27:11;;;;;;;;;;;;;;;18.39;100.00;98779.75;5010106;28;20004;-63
2021/08/04 06:29:36;;;;;;;;;;;;;;;18.37;100.00;98782.47;5009456;28;20064;-63
2021/08/04 06:32:02;;;;;;;;;;;;;;;17.73;100.00;98782.31;5009870;28;19914;-63
2021/08/04 06:34:27;;;;;;;;;;;;;;;18.75;100.00;98773.81;4991300;28;19914;-62
2021/08/04 06:36:53;;;;;;;;;;;;;;;18.88;100.00;98776.41;4992396;28;20385;-63
2021/08/04 06:39:18;;;;;;;;;;;;;;;19.07;100.00;98773.34;4991789;28;19913;-63
2021/08/04 06:41:43;;;;;;;;;;;;;;;19.63;100.00;98768.44;5011011;28;20502;-63
2021/08/04 06:44:08;;;;;;;;;;;;;;;18.96;100.00;98773.28;5009742;28;19918;-62
2021/08/04 06:46:35;;;;;;;;;;;;;;;19.04;100.00;98775.34;5010775;28;19914;-63
2021/08/04 06:49:01;;;;;;;;;;;;;;;19.65;98.51;98776.16;5009107;28;19917;-62
2021/08/04 06:51:26;;;;;;;;;;;;;;;20.36;88.84;98777.00;5009357;28;19913;-62
2021/08/04 06:53:51;;;;;;;;;;;;;;;20.19;99.67;98774.84;4991653;28;19953;-62
2021/08/04 06:56:17;;;;;;;;;;;;;;;19.95;100.00;98783.56;5009799;28;19918;-63
2021/08/04 06:58:42;;;;;;;;;;;;;;;20.47;95.09;98779.63;5007720;28;19921;-63
2021/08/04 07:01:08;;;;;;;;;;;;;;;20.89;92.35;98779.94;5007006;28;19913;-63
2021/08/04 07:03:35;;;;;;;;;;;;;;;20.32;92.51;98775.59;5010380;28;20610;-63
2021/08/04 07:06:00;;;;;;;;;;;;;;;20.70;94.15;98779.69;5008870;28;19914;-63
2021/08/04 07:08:26;;;;;;;;;;;;;;;21.12;95.32;98774.69;4994737;28;19928;-62
2021/08/04 07:10:51;;;;;;;;;;;;;;;21.27;91.55;98773.44;5012947;28;20008;-63
2021/08/04 07:13:17;;;;;;;;;;;;;;;21.63;93.52;98771.47;5012916;28;19921;-62
2021/08/04 07:15:42;;;;;;;;;;;;;;;21.83;93.82;98769.00;5013625;28;20368;-62
2021/08/04 07:18:09;;;;;;;;;;;;;;;22.21;84.14;98773.69;5012932;28;19918;-62
2021/08/04 07:20:35;;;;;;;;;;;;;;;21.41;97.12;98774.16;4996251;28;19913;-63
2021/08/04 07:23:01;;;;;;;;;;;;;;;21.66;91.87;98775.63;5012585;28;20338;-63
2021/08/04 07:25:26;;;;;;;;;;;;;;;21.22;94.54;98770.34;5018058;28;19928;-62
2021/08/04 07:27:51;;;;;;;;;;;;;;;22.52;89.18;98766.72;4995856;28;20461;-62
2021/08/04 07:30:17;;;;;;;;;;;;;;;22.12;88.60;98770.06;5013852;28;19917;-62
2021/08/04 07:32:42;;;;;;;;;;;;;;;22.11;91.71;98773.63;5014729;28;20379;-63
2021/08/04 07:35:08;;;;;;;;;;;;;;;22.12;95.91;98775.31;5013113;28;19917;-63
2021/08/04 07:37:33;;;;;;;;;;;;;;;22.63;87.54;98771.03;5013166;28;20000;-63
2021/08/04 07:39:58;;;;;;;;;;;;;;;22.54;82.93;98775.28;5012116;28;19914;-63
2021/08/04 07:42:24;;;;;;;;;;;;;;;23.48;77.18;98766.34;5013407;28;20001;-63
2021/08/04 07:44:50;;;;;;;;;;;;;;;23.01;80.72;98769.53;4994633;28;19924;-63
2021/08/04 07:47:15;;;;;;;;;;;;;;;23.31;76.24;98779.19;5019360;28;19956;-63
2021/08/04 07:49:41;;;;;;;;;;;;;;;23.02;78.82;98784.34;5012815;28;20417;-63
2021/08/04 07:52:06;;;;;;;;;;;;;;;23.16;80.29;98785.78;5011324;28;19987;-63
2021/08/04 07:54:32;;;;;;;;;;;;;;;23.96;73.36;98790.03;5010409;28;19913;-63
2021/08/04 07:56:57;;;;;;;;;;;;;;;23.51;75.39;98785.28;4991746;28;19920;-63
2021/08/04 07:59:22;;;;;;;;;;;;;;;22.78;74.31;98789.88;5010408;28;19924;-63
2021/08/04 08:01:48;;;;;;;;;;;;;;;22.41;80.96;98784.31;5007570;28;20552;-62
2021/08/04 08:04:13;;;;;;;;;;;;;;;22.70;80.85;98779.22;4990918;28;19953;-63
2021/08/04 08:06:39;;;;;;;;;;;;;;;22.11;87.81;98784.09;5008766;28;19991;-63
2021/08/04 08:09:04;;;;;;;;;;;;;;;22.82;87.81;98782.59;4996621;28;19918;-63
2021/08/04 08:11:29;;;;;;;;;;;;;;;22.41;88.32;98777.28;5008529;28;19986;-63
2021/08/04 08:13:55;;;;;;;;;;;;;;;20.51;100.00;98774.19;4990644;28;19952;-63
2021/08/04 08:16:20;;;;;;;;;;;;;;;20.63;100.00;98775.88;4994424;28;20321;-63
2021/08/04 08:18:45;;;;;;;;;;;;;;;20.25;100.00;98780.44;5009937;28;19917;-62
2021/08/04 08:21:11;;;;;;;;;;;;;;;21.46;94.94;98774.59;5010537;28;20007;-63
2021/08/04 08:23:36;;;;;;;;;;;;;;;20.23;96.79;98782.34;5011254;28;19922;-62
2021/08/04 08:26:02;;;;;;;;;;;;;;;21.77;90.37;98780.00;5011682;28;20379;-63
2021/08/04 08:28:27;;;;;;;;;;;;;;;21.97;85.56;98781.81;4995359;28;20371;-63
2021/08/04 08:30:52;;;;;;;;;;;;;;;22.03;84.08;98786.56;4996290;28;19987;-62
2021/08/04 08:33:18;;;;;;;;;;;;;;;21.87;87.80;98781.75;5010337;28;19932;-62
2021/08/04 08:35:43;;;;;;;;;;;;;;;21.36;93.09;98781.53;4993723;28;19932;-62
2021/08/04 08:38:08;;;;;;;;;;;;;;;22.25;87.29;98785.59;5012574;28;20398;-63
2021/08/04 08:40:33;;;;;;;;;;;;;;;21.76;89.70;98784.41;5010451;28;19921;-63
2021/08/04 08:42:59;;;;;;;;;;;;;;;21.36;86.83;98786.75;5011723;28;19917;-63
2021/08/04 08:45:24;;;;;;;;;;;;;;;21.23;86.15;98782.50;5008032;28;19914;-62
2021/08/04 08:47:50;;;;;;;;;;;;;;;21.75;84.21;98776.66;5011709;28;19924;-63
2021/08/04 08:50:15;;;;;;;;;;;;;;;21.72;86.89;98778.56;4993154;28;19913;-63
2021/08/04 08:52:40;;;;;;;;;;;;;;;21.88;86.32;98777.31;5008409;28;20004;-63
2021/08/04 08:55:07;;;;;;;;;;;;;;;20.66;99.26;98776.47;4990654;28;19921;-62
2021/08/04 08:57:32;;;;;;;;;;;;;;;20.99;92.49;98774.78;5004199;28;19913;-63
2021/08/04 08:59:57;;;;;;;;;;;;;;;21.71;85.53;98782.16;5011599;28;19968;-63
2021/08/04 09:02:23;;;;;;;;;;;;;;;22.14;83.92;98770.72;4989160;28;20437;-62
2021/08/04 09:04:56;;;;;;;;;;;;;;;22.75;81.76;98777.03;4993882;28;19919;-63
2021/08/04 09:07:35;;;;;;;;;;;;;;;23.32;77.60;98764.22;4992683;28;19913;-63
2021/08/04 09:10:00;;;;;;;;;;;;;;;22.51;81.33;98774.69;4992824;28;19968;-63
2021/08/04 09:12:26;;;;;;;;;;;;;;;22.88;84.29;98774.19;5010483;28;19953;-63
2021/08/04 09:14:51;;;;;;;;;;;;;;;21.96;80.98;98785.38;5010321;28;19921;-63
2021/08/04 09:17:17;;;;;;;;;;;;;;;22.25;81.55;98779.53;5010408;28;19975;-63
2021/08/04 09:19:43;;;;;;;;;;;;;;;22.46;83.24;98772.47;4992738;28;20375;-62
2021/08/04 09:22:08;;;;;;;;;;;;;;;22.27;84.60;98777.63;5008464;28;19957;-62
2021/08/04 09:24:51;;;;;;;;;;;;;;;22.38;81.08;98774.94;5010079;28;19963;-62
2021/08/04 09:27:17;;;;;;;;;;;;;;;22.13;89.87;98776.13;5002134;28;19959;-63
2021/08/04 09:29:58;;;;;;;;;;;;;;;23.12;76.29;98769.44;5011250;28;20552;-63
2021/08/04 09:32:26;;;;;;;;;;;;;;;23.07;78.00;98766.38;4986070;28;19936;-62
2021/08/04 09:34:51;;;;;;;;;;;;;;;24.25;73.26;98757.59;4993512;28;20024;-63
2021/08/04 09:37:18;;;;;;;;;;;;;;;22.26;79.91;98768.06;4994046;28;20407;-63
2021/08/04 09:39:44;;;;;;;;;;;;;;;22.98;74.22;98765.34;5001285;28;19917;-63
2021/08/04 09:42:10;;;;;;;;;;;;;;;23.70;79.84;98763.44;5011130;28;19948;-62
2021/08/04 09:44:51;;;;;;;;;;;;;;;23.70;72.72;98760.81;5011295;28;19960;-63
2021/08/04 09:47:18;;;;;;;;;;;;;;;23.61;70.95;98768.69;5010962;28;20334;-62
2021/08/04 09:49:52;;;;;;;;;;;;;;;22.35;78.91;98772.53;5010945;28;19917;-63
2021/08/04 09:52:18;;;;;;;;;;;;;;;23.55;82.92;98770.06;4991599;28;20346;-63
2021/08/04 09:54:43;;;;;;;;;;;;;;;22.73;73.24;98771.91;4990405;28;19972;-63
2021/08/04 09:57:09;;;;;;;;;;;;;;;22.77;82.16;98759.34;5008468;28;19913;-63
2021/08/04 09:59:34;;;;;;;;;;;;;;;22.45;72.94;98759.50;5007228;28;20300;-63
2021/08/04 10:02:00;;;;;;;;;;;;;;;22.29;75.53;98762.59;5005022;28;20472;-62
2021/08/04 10:04:25;;;;;;;;;;;;;;;24.93;67.80;98760.00;4990376;28;19913;-63
2021/08/04 10:06:51;;;;;;;;;;;;;;;24.62;68.11;98760.28;5007867;28;19917;-63
2021/08/04 10:09:17;;;;;;;;;;;;;;;23.51;65.80;98752.91;4991290;28;20023;-62
2021/08/04 10:11:46;;;;;;;;;;;;;;;24.94;68.72;98759.03;5007791;28;20787;-62
2021/08/04 10:14:16;;;;;;;;;;;;;;;25.74;63.80;98753.09;4960159;28;19980;-63
2021/08/04 10:16:41;;;;;;;;;;;;;;;25.97;63.21;98756.13;4990832;28;19949;-63
2021/08/04 10:19:07;;;;;;;;;;;;;;;23.98;60.77;98753.06;4991713;28;20415;-62
2021/08/04 10:21:33;;;;;;;;;;;;;;;25.29;60.09;98754.00;4989439;28;20386;-63
2021/08/04 10:23:59;;;;;;;;;;;;;;;25.54;54.24;98755.06;4990152;28;19918;-63
2021/08/04 10:26:24;;;;;;;;;;;;;;;25.08;58.32;98754.25;4997248;28;20264;-63
2021/08/04 10:28:52;;;;;;;;;;;;;;;25.57;64.13;98760.06;4967023;28;20411;-63
2021/08/04 10:31:18;;;;;;;;;;;;;;;25.27;61.88;98758.59;4990415;28;19921;-62
2021/08/04 10:33:43;;;;;;;;;;;;;;;25.93;55.19;98752.94;4990873;28;19917;-63
2021/08/04 10:36:10;;;;;;;;;;;;;;;24.77;67.51;98750.09;4990620;28;20049;-63
2021/08/04 10:38:37;;;;;;;;;;;;;;;24.50;59.54;98750.91;4976392;28;20394;-63
2021/08/04 10:41:09;;;;;;;;;;;;;;;25.91;65.05;98744.38;4978599;28;19913;-63
2021/08/04 10:43:36;;;;;;;;;;;;;;;26.17;58.17;98746.22;4990420;28;20437;-62
2021/08/04 10:46:01;;;;;;;;;;;;;;;26.67;54.39;98738.44;4994566;28;20376;-63
2021/08/04 10:48:26;;;;;;;;;;;;;;;25.52;53.67;98744.69;4990562;28;19929;-63
2021/08/04 10:51:10;;;;;;;;;;;;;;;25.88;58.12;98740.22;4990193;28;19992;-62
2021/08/04 10:53:40;;;;;;;;;;;;;;;26.05;56.70;98735.09;4990254;28;20569;-63
2021/08/04 10:56:05;;;;;;;;;;;;;;;26.40;53.52;98741.22;4975407;28;19914;-63
2021/08/04 10:58:30;;;;;;;;;;;;;;;26.76;51.85;98735.84;4998592;28;19937;-63
2021/08/04 11:01:08;;;;;;;;;;;;;;;25.42;51.95;98742.09;4972827;28;20391;-63
2021/08/04 11:03:33;;;;;;;;;;;;;;;23.39;65.88;98739.88;4962111;28;19925;-63
2021/08/04 11:06:10;;;;;;;;;;;;;;;23.16;73.33;98741.94;4989980;28;20303;-62
2021/08/04 11:08:35;;;;;;;;;;;;;;;25.88;59.83;98737.56;4990089;28;20032;-62
2021/08/04 11:11:01;;;;;;;;;;;;;;;24.19;59.79;98740.56;4990386;28;20013;-63
2021/08/04 11:13:41;;;;;;;;;;;;;;;26.08;58.82;98737.41;4998128;28;19925;-63
2021/08/04 11:16:24;;;;;;;;;;;;;;;26.64;48.99;98728.19;5015287;28;20427;-63
2021/08/04 11:19:03;;;;;;;;;;;;;;;24.62;62.98;98731.31;5010529;28;19921;-63
2021/08/04 11:21:28;;;;;;;;;;;;;;;26.26;54.38;98738.19;5009540;28;19921;-63
2021/08/04 11:23:54;;;;;;;;;;;;;;;26.08;54.84;98732.13;4994459;28;19979;-63
2021/08/04 11:26:27;;;;;;;;;;;;;;;26.20;54.62;98728.22;4991287;28;19921;-63
2021/08/04 11:28:52;;;;;;;;;;;;;;;25.76;50.82;98732.69;4996317;28;20027;-63
2021/08/04 11:31:19;;;;;;;;;;;;;;;27.16;52.61;98727.19;5000912;28;20085;-63
2021/08/04 11:33:44;;;;;;;;;;;;;;;28.28;51.26;98728.41;4996173;28;19917;-63
2021/08/04 11:36:10;;;;;;;;;;;;;;;28.22;50.76;98722.97;4991472;28;19925;-63
2021/08/04 11:38:35;;;;;;;;;;;;;;;28.24;48.21;98719.16;5005839;28;20398;-63
2021/08/04 11:41:14;;;;;;;;;;;;;;;26.71;51.71;98723.09;5010725;28;20421;-63
2021/08/04 11:43:39;;;;;;;;;;;;;;;26.43;49.02;98730.34;5005817;28;19921;-63
2021/08/04 11:46:04;;;;;;;;;;;;;;;26.10;48.83;98719.59;5016228;28;19917;-63
2021/08/04 11:48:51;;;;;;;;;;;;;;;26.84;52.19;98722.63;5009082;28;19940;-63
2021/08/04 11:51:16;;;;;;;;;;;;;;;28.07;46.58;98710.41;5008879;28;20008;-63
2021/08/04 11:53:45;;;;;;;;;;;;;;;27.92;45.82;98710.28;5003206;28;20056;-63
2021/08/04 11:56:10;;;;;;;;;;;;;;;25.87;47.90;98722.75;5012887;28;19972;-62
2021/08/04 11:58:35;;;;;;;;;;;;;;;26.56;49.13;98719.41;5012452;28;20751;-62
2021/08/04 12:01:14;;;;;;;;;;;;;;;27.73;46.10;98713.22;5012701;28;20615;-63
2021/08/04 12:03:39;;;;;;;;;;;;;;;26.80;45.47;98710.72;5003644;28;19921;-63
2021/08/04 12:06:14;;;;;;;;;;;;;;;26.37;52.01;98710.69;5015541;28;19923;-62
2021/08/04 12:08:39;;;;;;;;;;;;;;;24.82;54.97;98710.97;5005415;28;19953;-63
2021/08/04 12:11:04;;;;;;;;;;;;;;;24.40;57.45;98710.56;4994631;28;19955;-63
2021/08/04 12:13:30;;;;;;;;;;;;;;;24.45;57.71;98711.00;5013509;28;20729;-62
2021/08/04 12:16:01;;;;;;;;;;;;;;;24.93;54.89;98707.31;5022519;28;19913;-63
2021/08/04 12:18:26;;;;;;;;;;;;;;;26.46;56.43;98699.19;5013932;28;19914;-62
2021/08/04 12:20:55;;;;;;;;;;;;;;;26.37;51.02;98694.03;5014980;28;19928;-63
2021/08/04 12:23:23;;;;;;;;;;;;;;;25.24;53.84;98693.81;5000095;28;20382;-63
2021/08/04 12:25:58;;;;;;;;;;;;;;;26.64;53.61;98690.34;5008061;28;19943;-63
2021/08/04 12:28:27;;;;;;;;;;;;;;;26.46;50.80;98690.44;5004744;28;19918;-63
2021/08/04 12:30:53;;;;;;;;;;;;;;;26.59;50.70;98680.28;5009040;28;19914;-63
2021/08/04 12:33:20;;;;;;;;;;;;;;;25.82;52.24;98687.25;5015330;28;19913;-63
2021/08/04 12:35:47;;;;;;;;;;;;;;;26.68;54.54;98689.88;4995999;28;19921;-63
2021/08/04 12:38:13;;;;;;;;;;;;;;;26.58;50.24;98686.56;5011106;28;19914;-63